createdAt,value
2018-06-16T00:02:11.709Z,75.80
2018-06-16T00:04:41.317Z,76.00
2018-06-16T00:07:11.130Z,76.30
2018-06-16T00:09:40.599Z,76.20
2018-06-16T00:12:10.372Z,76.30
2018-06-16T00:14:39.530Z,76.10
2018-06-16T00:17:08.464Z,76.50
2018-06-16T00:19:37.536Z,76.60
2018-06-16T00:22:07.034Z,76.80
2018-06-16T00:24:37.457Z,76.90
2018-06-16T00:27:06.885Z,78.00
2018-06-16T00:29:36.349Z,77.90
2018-06-16T00:32:06.259Z,78.00
2018-06-16T00:34:35.374Z,78.50
2018-06-16T00:37:04.783Z,78.70
2018-06-16T00:39:34.469Z,78.80
2018-06-16T00:42:03.633Z,78.80
2018-06-16T00:44:32.994Z,79.00
2018-06-16T00:47:03.001Z,79.10
2018-06-16T00:49:32.172Z,78.60
2018-06-16T00:52:01.386Z,78.90
2018-06-16T00:54:30.366Z,79.20
2018-06-16T00:57:11.474Z,79.40
2018-06-16T00:59:40.891Z,79.60
2018-06-16T01:02:10.060Z,79.90
2018-06-16T01:04:40.138Z,79.80
2018-06-16T01:07:09.465Z,79.90
2018-06-16T01:09:38.826Z,80.10
2018-06-16T01:12:07.868Z,81.90
2018-06-16T01:14:37.043Z,80.60
2018-06-16T01:17:06.138Z,80.60
2018-06-16T01:19:35.377Z,80.60
2018-06-16T01:22:04.688Z,80.80
2018-06-16T01:24:33.705Z,80.90
2018-06-16T01:27:03.291Z,81.20
2018-06-16T01:29:32.758Z,81.50
2018-06-16T01:32:02.583Z,81.60
2018-06-16T01:34:32.250Z,81.50
2018-06-16T01:37:01.870Z,81.30
2018-06-16T01:39:31.524Z,81.50
2018-06-16T01:42:01.046Z,81.50
2018-06-16T01:44:29.923Z,81.50
2018-06-16T01:46:58.955Z,81.80
2018-06-16T01:49:28.102Z,82.20
2018-06-16T01:51:57.200Z,82.30
2018-06-16T01:54:26.428Z,82.50
2018-06-16T01:56:55.721Z,82.70
2018-06-16T01:59:24.732Z,83.10
2018-06-16T02:01:55.225Z,82.90
2018-06-16T02:04:24.726Z,83.40
2018-06-16T02:06:53.905Z,83.10
2018-06-16T02:09:22.917Z,83.40
2018-06-16T02:11:52.133Z,83.70
2018-06-16T02:14:22.312Z,82.40
2018-06-16T02:16:51.849Z,82.70
2018-06-16T02:19:21.582Z,82.70
2018-06-16T02:21:50.955Z,83.00
2018-06-16T02:24:21.050Z,82.00
2018-06-16T02:26:50.591Z,81.50
2018-06-16T02:29:19.981Z,81.80
2018-06-16T02:31:49.162Z,82.00
2018-06-16T02:34:18.385Z,83.70
2018-06-16T02:36:48.224Z,82.50
2018-06-16T02:39:17.376Z,82.50
2018-06-16T02:41:46.498Z,83.00
2018-06-16T02:44:16.034Z,81.80
2018-06-16T02:46:45.157Z,82.00
2018-06-16T02:49:15.016Z,83.20
2018-06-16T02:51:44.149Z,82.00
2018-06-16T02:54:13.718Z,82.50
2018-06-16T02:56:43.266Z,82.20
2018-06-16T02:59:12.939Z,86.60
2018-06-16T03:01:42.473Z,88.50
2018-06-16T03:04:12.092Z,85.10
2018-06-16T03:06:41.308Z,84.10
2018-06-16T03:09:11.116Z,83.10
2018-06-16T03:11:41.370Z,85.10
2018-06-16T03:14:11.184Z,87.30
2018-06-16T03:16:40.900Z,87.50
2018-06-16T03:19:10.956Z,88.00
2018-06-16T03:21:40.585Z,87.00
2018-06-16T03:24:10.214Z,87.40
2018-06-16T03:26:40.475Z,86.10
2018-06-16T03:29:11.165Z,85.40
2018-06-16T03:31:41.643Z,85.70
2018-06-16T03:34:11.394Z,86.40
2018-06-16T03:36:41.398Z,85.10
2018-06-16T03:39:11.629Z,85.60
2018-06-16T03:41:41.839Z,85.20
2018-06-16T03:44:11.369Z,85.00
2018-06-16T03:46:41.455Z,84.90
2018-06-16T03:49:11.181Z,83.50
2018-06-16T03:51:40.966Z,82.80
2018-06-16T03:54:12.240Z,82.10
2018-06-16T03:56:46.134Z,82.40
2018-06-16T03:59:15.914Z,81.70
2018-06-16T04:01:45.533Z,82.30
2018-06-16T04:04:14.649Z,81.70
2018-06-16T04:06:44.927Z,82.30
2018-06-16T04:09:14.084Z,82.60
2018-06-16T04:11:44.988Z,83.00
2018-06-16T04:14:14.222Z,84.90
2018-06-16T04:16:44.482Z,84.90
2018-06-16T04:19:14.471Z,84.90
2018-06-16T04:21:44.292Z,84.40
2018-06-16T04:24:14.273Z,85.10
2018-06-16T04:26:44.152Z,84.80
2018-06-16T04:29:13.604Z,83.80
2018-06-16T04:31:43.388Z,83.20
2018-06-16T04:34:13.419Z,83.20
2018-06-16T04:36:43.416Z,82.50
2018-06-16T04:39:13.855Z,82.10
2018-06-16T04:41:43.451Z,81.80
2018-06-16T04:46:42.585Z,81.50
2018-06-16T04:51:41.355Z,81.60
2018-06-16T04:54:11.156Z,81.80
2018-06-16T04:56:40.624Z,82.10
2018-06-16T04:59:09.992Z,82.10
2018-06-16T05:01:39.471Z,82.40
2018-06-16T05:04:08.787Z,82.50
2018-06-16T05:06:38.891Z,82.50
2018-06-16T05:09:10.182Z,81.80
2018-06-16T05:11:51.338Z,82.50
2018-06-16T05:14:20.597Z,82.40
2018-06-16T05:16:50.121Z,82.50
2018-06-16T05:19:19.819Z,82.20
2018-06-16T05:21:50.084Z,83.40
2018-06-16T05:28:58.142Z,82.20
2018-06-16T05:31:27.479Z,82.70
2018-06-16T05:33:57.137Z,81.70
2018-06-16T05:36:26.718Z,81.20
2018-06-16T05:38:56.167Z,81.40
2018-06-16T05:41:25.552Z,81.70
2018-06-16T05:43:55.022Z,81.30
2018-06-16T05:46:24.120Z,80.90
2018-06-16T05:48:54.502Z,80.00
2018-06-16T05:51:23.990Z,80.10
2018-06-16T05:53:53.766Z,79.90
2018-06-16T05:56:23.105Z,79.80
2018-06-16T05:58:53.170Z,79.50
2018-06-16T06:01:22.751Z,79.90
2018-06-16T06:03:52.513Z,79.80
2018-06-16T06:06:22.214Z,79.50
2018-06-16T06:08:51.161Z,79.40
2018-06-16T06:11:21.031Z,79.60
2018-06-16T06:13:50.895Z,79.40
2018-06-16T06:16:19.997Z,79.60
2018-06-16T06:18:49.087Z,79.70
2018-06-16T06:21:19.250Z,79.30
2018-06-16T06:26:29.239Z,78.60
2018-06-16T06:28:59.310Z,77.90
2018-06-16T06:31:29.671Z,77.10
2018-06-16T06:33:59.591Z,76.30
2018-06-16T06:36:29.375Z,76.60
2018-06-16T06:38:59.256Z,76.60
2018-06-16T06:41:29.827Z,77.10
2018-06-16T06:43:59.531Z,75.20
2018-06-16T06:46:28.550Z,74.10
2018-06-16T06:48:57.990Z,75.00
2018-06-16T06:51:27.093Z,75.50
2018-06-16T06:53:55.921Z,74.50
2018-06-16T06:56:25.377Z,72.40
2018-06-16T06:58:55.299Z,72.10
2018-06-16T07:01:24.613Z,72.00
2018-06-16T07:03:54.793Z,72.40
2018-06-16T07:06:26.531Z,71.60
2018-06-16T07:08:55.902Z,71.90
2018-06-16T07:11:25.622Z,71.80
2018-06-16T07:13:54.552Z,69.00
2018-06-16T07:16:24.512Z,70.00
2018-06-16T07:18:55.827Z,68.70
2018-06-16T07:21:25.011Z,69.50
2018-06-16T07:23:54.359Z,68.70
2018-06-16T07:26:23.624Z,67.70
2018-06-16T07:28:52.966Z,67.90
2018-06-16T07:31:21.939Z,67.00
2018-06-16T07:33:51.630Z,67.50
2018-06-16T07:36:20.550Z,67.20
2018-06-16T07:38:50.659Z,67.10
2018-06-16T07:41:20.197Z,67.60
2018-06-16T07:43:49.226Z,67.20
2018-06-16T07:46:19.043Z,67.00
2018-06-16T07:48:49.364Z,67.10
2018-06-16T07:51:19.285Z,66.80
2018-06-16T07:53:49.207Z,64.90
2018-06-16T07:56:18.275Z,64.70
2018-06-16T07:58:47.753Z,64.50
2018-06-16T08:01:17.476Z,63.70
2018-06-16T08:06:19.591Z,63.20
2018-06-16T08:08:49.762Z,60.00
2018-06-16T08:11:19.962Z,60.30
2018-06-16T08:13:50.012Z,56.90
2018-06-16T08:16:19.472Z,58.20
2018-06-16T08:18:49.363Z,54.00
2018-06-16T08:21:19.290Z,54.80
2018-06-16T08:24:00.349Z,52.80
2018-06-16T08:26:31.330Z,49.80
2018-06-16T08:29:01.246Z,47.60
2018-06-16T08:31:30.426Z,41.00
2018-06-16T08:33:59.930Z,42.10
2018-06-16T08:36:28.873Z,43.60
2018-06-16T08:38:58.112Z,41.80
2018-06-16T08:41:26.754Z,38.10
2018-06-16T08:43:57.075Z,36.90
2018-06-16T08:46:26.018Z,38.90
2018-06-16T08:48:57.074Z,36.60
2018-06-16T08:51:26.896Z,37.10
2018-06-16T08:53:55.672Z,33.00
2018-06-16T08:56:25.110Z,34.40
2018-06-16T08:58:54.484Z,35.80
2018-06-16T09:01:23.649Z,31.60
2018-06-16T09:03:52.966Z,31.60
2018-06-16T09:06:22.235Z,36.30
2018-06-16T09:08:52.193Z,32.60
2018-06-16T09:11:22.370Z,31.80
2018-06-16T09:13:51.696Z,31.70
2018-06-16T09:16:20.605Z,33.90
2018-06-16T09:18:51.478Z,30.00
2018-06-16T09:21:22.029Z,30.40
2018-06-16T09:23:52.591Z,33.20
2018-06-16T09:26:22.381Z,30.30
2018-06-16T09:28:52.200Z,30.70
2018-06-16T09:31:21.301Z,29.40
2018-06-16T09:33:50.743Z,26.70
2018-06-16T09:36:20.248Z,29.00
2018-06-16T09:38:49.756Z,30.50
2018-06-16T09:41:19.134Z,32.00
2018-06-16T09:43:49.487Z,31.80
2018-06-16T09:46:19.597Z,30.50
2018-06-16T09:48:48.709Z,29.90
2018-06-16T09:51:18.163Z,29.00
2018-06-16T09:53:49.561Z,29.20
2018-06-16T09:56:25.620Z,28.20
2018-06-16T09:59:00.012Z,26.00
2018-06-16T10:01:30.031Z,28.10
2018-06-16T10:03:59.192Z,28.10
2018-06-16T10:06:28.286Z,28.20
2018-06-16T10:08:57.636Z,29.40
2018-06-16T10:11:33.995Z,27.10
2018-06-16T10:14:16.746Z,26.30
2018-06-16T10:16:47.413Z,26.60
2018-06-16T10:19:17.056Z,26.50
2018-06-16T10:21:46.141Z,29.00
2018-06-16T10:24:16.313Z,29.50
2018-06-16T10:26:46.694Z,28.00
2018-06-16T10:29:16.329Z,29.00
2018-06-16T10:31:49.750Z,28.60
2018-06-16T10:34:19.210Z,29.80
2018-06-16T10:36:48.484Z,29.30
2018-06-16T10:39:18.078Z,30.00
2018-06-16T10:41:47.659Z,29.40
2018-06-16T10:44:16.746Z,28.70
2018-06-16T10:46:46.301Z,28.60
2018-06-16T10:49:15.654Z,29.00
2018-06-16T10:51:45.180Z,28.40
2018-06-16T10:54:14.601Z,28.70
2018-06-16T10:56:44.554Z,28.50
2018-06-16T10:59:16.797Z,28.30
2018-06-16T11:01:47.540Z,29.20
2018-06-16T11:04:17.031Z,29.20
2018-06-16T11:06:46.615Z,28.90
2018-06-16T11:09:16.044Z,30.50
2018-06-16T11:11:45.747Z,28.30
2018-06-16T11:14:14.834Z,28.80
2018-06-16T11:16:44.210Z,29.00
2018-06-16T11:19:13.132Z,27.20
2018-06-16T11:21:42.537Z,31.20
2018-06-16T11:24:11.507Z,29.90
2018-06-16T11:26:41.346Z,28.60
2018-06-16T11:29:11.039Z,31.50
2018-06-16T11:31:40.195Z,31.00
2018-06-16T11:34:09.438Z,28.30
2018-06-16T11:36:38.362Z,29.60
2018-06-16T11:39:09.969Z,29.20
2018-06-16T11:41:39.178Z,31.60
2018-06-16T11:44:08.458Z,31.00
2018-06-16T11:46:38.115Z,30.50
2018-06-16T11:49:07.169Z,29.60
2018-06-16T11:51:36.561Z,30.00
2018-06-16T11:54:06.104Z,30.40
2018-06-16T11:56:35.439Z,29.70
2018-06-16T11:59:05.200Z,29.40
2018-06-16T12:01:35.332Z,30.20
2018-06-16T12:04:05.366Z,30.70
2018-06-16T12:06:34.921Z,31.70
2018-06-16T12:09:06.303Z,28.70
2018-06-16T12:11:37.640Z,30.00
2018-06-16T12:14:07.078Z,28.30
2018-06-16T12:16:36.850Z,31.20
2018-06-16T12:19:06.916Z,31.20
2018-06-16T12:21:36.175Z,28.00
2018-06-16T12:24:05.713Z,27.80
2018-06-16T12:26:34.905Z,29.90
2018-06-16T12:29:04.862Z,28.80
2018-06-16T12:31:33.910Z,29.40
2018-06-16T12:34:03.257Z,29.50
2018-06-16T12:36:32.716Z,27.80
2018-06-16T12:39:01.680Z,29.90
2018-06-16T12:41:31.184Z,30.00
2018-06-16T12:44:01.073Z,28.90
2018-06-16T12:46:31.542Z,31.20
2018-06-16T12:49:00.500Z,29.50
2018-06-16T12:51:30.615Z,28.10
2018-06-16T12:54:00.247Z,29.20
2018-06-16T12:56:29.207Z,27.90
2018-06-16T12:58:58.459Z,27.10
2018-06-16T13:01:27.597Z,24.60
2018-06-16T13:03:56.607Z,28.20
2018-06-16T13:06:26.079Z,28.20
2018-06-16T13:08:55.111Z,27.20
2018-06-16T13:11:24.040Z,26.20
2018-06-16T13:13:52.859Z,27.00
2018-06-16T13:16:21.794Z,26.30
2018-06-16T13:18:51.224Z,26.50
2018-06-16T13:21:19.886Z,26.20
2018-06-16T13:23:48.829Z,24.80
2018-06-16T13:26:18.110Z,26.80
2018-06-16T13:28:46.789Z,26.60
2018-06-16T13:31:15.513Z,26.00
2018-06-16T13:36:13.475Z,25.60
2018-06-16T13:38:42.541Z,26.10
2018-06-16T13:41:11.730Z,23.90
2018-06-16T13:43:40.472Z,23.80
2018-06-16T13:46:09.506Z,24.10
2018-06-16T13:48:38.690Z,23.50
2018-06-16T13:51:07.636Z,23.50
2018-06-16T13:53:36.519Z,25.20
2018-06-16T13:56:05.737Z,24.00
2018-06-16T13:58:34.691Z,22.50
2018-06-16T14:01:03.913Z,22.50
2018-06-16T14:03:32.692Z,22.80
2018-06-16T14:06:01.918Z,23.90
2018-06-16T14:08:30.912Z,24.10
2018-06-16T14:10:59.854Z,23.40
2018-06-16T14:13:29.366Z,23.00
2018-06-16T14:15:58.630Z,21.80
2018-06-16T14:18:27.682Z,22.80
2018-06-16T14:20:56.544Z,21.90
2018-06-16T14:23:26.548Z,23.90
2018-06-16T14:25:56.483Z,21.70
2018-06-16T14:28:25.540Z,22.10
2018-06-16T14:30:54.634Z,21.40
2018-06-16T14:33:23.801Z,22.10
2018-06-16T14:35:54.106Z,20.20
2018-06-16T14:38:23.506Z,22.10
2018-06-16T14:40:53.280Z,21.20
2018-06-16T14:43:22.519Z,21.30
2018-06-16T14:45:51.662Z,21.70
2018-06-16T14:48:20.698Z,19.70
2018-06-16T14:50:49.601Z,20.20
2018-06-16T14:53:19.709Z,21.00
2018-06-16T14:55:49.074Z,23.70
2018-06-16T14:58:18.150Z,24.50
2018-06-16T15:00:47.614Z,23.70
2018-06-16T15:03:16.250Z,24.60
2018-06-16T15:05:45.195Z,25.70
2018-06-16T15:08:15.078Z,26.10
2018-06-16T15:10:43.925Z,27.70
2018-06-16T15:13:13.084Z,26.60
2018-06-16T15:15:42.180Z,27.70
2018-06-16T15:18:11.860Z,28.70
2018-06-16T15:20:41.369Z,28.40
2018-06-16T15:23:10.520Z,29.50
2018-06-16T15:25:40.111Z,32.40
2018-06-16T15:28:09.288Z,30.20
2018-06-16T15:30:38.733Z,30.10
2018-06-16T15:33:07.985Z,31.10
2018-06-16T15:35:36.903Z,30.90
2018-06-16T15:38:05.949Z,31.30
2018-06-16T15:40:35.078Z,32.00
2018-06-16T15:43:05.315Z,31.00
2018-06-16T15:45:35.672Z,31.10
2018-06-16T15:48:04.831Z,32.10
2018-06-16T15:50:34.582Z,31.20
2018-06-16T15:55:32.234Z,31.40
2018-06-16T15:58:01.658Z,32.40
2018-06-16T16:00:31.832Z,31.90
2018-06-16T16:03:00.769Z,33.30
2018-06-16T16:07:59.120Z,33.80
2018-06-16T16:10:28.115Z,33.90
2018-06-16T16:12:57.145Z,32.30
2018-06-16T16:15:26.930Z,33.60
2018-06-16T16:17:55.881Z,34.10
2018-06-16T16:20:25.361Z,32.60
2018-06-16T16:22:54.324Z,32.20
2018-06-16T16:25:23.398Z,32.90
2018-06-16T16:27:52.390Z,32.90
2018-06-16T16:30:21.238Z,33.00
2018-06-16T16:32:51.586Z,32.10
2018-06-16T16:35:20.897Z,33.40
2018-06-16T16:37:50.654Z,33.80
2018-06-16T16:40:20.493Z,34.30
2018-06-16T16:42:49.675Z,33.50
2018-06-16T16:45:19.077Z,33.80
2018-06-16T16:50:16.731Z,34.10
2018-06-16T16:52:45.802Z,34.10
2018-06-16T16:55:16.016Z,33.90
2018-06-16T16:57:46.381Z,33.80
2018-06-16T17:00:15.500Z,34.10
2018-06-16T17:02:44.391Z,33.30
2018-06-16T17:05:13.733Z,34.00
2018-06-16T17:07:42.518Z,34.10
2018-06-16T17:10:11.561Z,34.00
2018-06-16T17:12:40.717Z,35.00
2018-06-16T17:15:10.196Z,37.30
2018-06-16T17:17:39.169Z,36.40
2018-06-16T17:22:38.631Z,37.60
2018-06-16T17:25:08.047Z,36.90
2018-06-16T17:27:37.237Z,37.60
2018-06-16T17:30:06.024Z,37.80
2018-06-16T17:32:35.302Z,37.80
2018-06-16T17:35:04.350Z,37.40
2018-06-16T17:37:33.898Z,38.50
2018-06-16T17:40:03.301Z,39.00
2018-06-16T17:42:32.701Z,38.60
2018-06-16T17:45:02.127Z,39.00
2018-06-16T17:47:31.881Z,39.30
2018-06-16T17:50:00.844Z,39.30
2018-06-16T17:52:31.219Z,39.70
2018-06-16T17:55:00.283Z,39.90
2018-06-16T17:57:29.639Z,39.70
2018-06-16T17:59:58.949Z,40.20
2018-06-16T18:02:29.488Z,41.00
2018-06-16T18:05:00.717Z,41.60
2018-06-16T18:07:30.341Z,41.40
2018-06-16T18:09:59.314Z,40.90
2018-06-16T18:12:28.743Z,40.90
2018-06-16T18:14:59.508Z,42.70
2018-06-16T18:17:29.078Z,43.20
2018-06-16T18:19:58.796Z,42.70
2018-06-16T18:22:28.233Z,43.00
2018-06-16T18:24:57.766Z,43.10
2018-06-16T18:29:55.888Z,43.90
2018-06-16T18:32:25.450Z,44.30
2018-06-16T18:37:23.907Z,45.40
2018-06-16T18:39:54.375Z,48.30
2018-06-16T18:42:23.953Z,48.70
2018-06-16T18:44:53.595Z,47.90
2018-06-16T18:47:22.471Z,48.10
2018-06-16T18:52:21.555Z,47.30
2018-06-16T18:54:50.842Z,48.00
2018-06-16T18:57:20.448Z,46.80
2018-06-16T18:59:53.490Z,47.60
2018-06-16T19:02:22.736Z,48.50
2018-06-16T19:04:52.189Z,48.20
2018-06-16T19:07:21.965Z,47.50
2018-06-16T19:09:51.633Z,49.20
2018-06-16T19:12:21.398Z,49.30
2018-06-16T19:14:51.862Z,48.10
2018-06-16T19:17:21.165Z,50.40
2018-06-16T19:19:50.532Z,48.80
2018-06-16T19:22:20.083Z,48.50
2018-06-16T19:24:49.229Z,49.10
2018-06-16T19:27:18.560Z,51.60
2018-06-16T19:29:47.571Z,49.70
2018-06-16T19:32:16.601Z,49.60
2018-06-16T19:34:48.176Z,49.80
2018-06-16T19:37:17.743Z,51.30
2018-06-16T19:39:47.435Z,52.20
2018-06-16T19:42:16.499Z,52.10
2018-06-16T19:44:46.610Z,52.50
2018-06-16T19:47:15.402Z,53.10
2018-06-16T19:49:45.643Z,52.90
2018-06-16T19:52:14.567Z,52.60
2018-06-16T19:54:43.836Z,53.50
2018-06-16T19:57:14.002Z,53.50
2018-06-16T19:59:43.180Z,53.70
2018-06-16T20:02:12.415Z,53.30
2018-06-16T20:04:41.572Z,54.60
2018-06-16T20:07:10.433Z,54.10
2018-06-16T20:09:39.640Z,54.60
2018-06-16T20:12:08.605Z,54.80
2018-06-16T20:14:37.976Z,55.10
2018-06-16T20:17:07.133Z,54.50
2018-06-16T20:19:36.520Z,55.60
2018-06-16T20:22:05.517Z,56.90
2018-06-16T20:24:34.754Z,55.90
2018-06-16T20:27:03.870Z,55.50
2018-06-16T20:29:32.886Z,56.00
2018-06-16T20:32:02.607Z,55.80
2018-06-16T20:34:32.567Z,56.00
2018-06-16T20:37:01.214Z,57.70
2018-06-16T20:39:30.434Z,57.50
2018-06-16T20:42:00.379Z,58.50
2018-06-16T20:44:29.211Z,57.90
2018-06-16T20:49:26.778Z,57.50
2018-06-16T20:51:55.742Z,58.60
2018-06-16T20:54:24.930Z,58.10
2018-06-16T20:56:54.080Z,58.30
2018-06-16T20:59:22.993Z,58.00
2018-06-16T21:01:52.087Z,57.60
2018-06-16T21:04:21.064Z,58.20
2018-06-16T21:06:50.667Z,58.10
2018-06-16T21:09:19.869Z,58.10
2018-06-16T21:11:50.140Z,58.30
2018-06-16T21:14:19.300Z,57.60
2018-06-16T21:16:50.322Z,57.20
2018-06-16T21:19:20.548Z,58.20
2018-06-16T21:21:49.694Z,58.40
2018-06-16T21:24:19.735Z,58.20
2018-06-16T21:26:49.067Z,59.00
2018-06-16T21:29:18.087Z,58.80
2018-06-16T21:31:47.266Z,59.50
2018-06-16T21:34:16.784Z,59.20
2018-06-16T21:36:47.192Z,59.30
2018-06-16T21:39:16.815Z,60.00
2018-06-16T21:41:46.112Z,61.20
2018-06-16T21:44:15.014Z,61.00
2018-06-16T21:46:44.302Z,60.80
2018-06-16T21:49:13.418Z,60.60
2018-06-16T21:51:43.763Z,61.40
2018-06-16T21:54:13.442Z,61.50
2018-06-16T21:56:42.783Z,61.20
2018-06-16T21:59:12.642Z,61.90
2018-06-16T22:01:42.692Z,62.10
2018-06-16T22:04:12.384Z,62.10
2018-06-16T22:06:41.654Z,62.60
2018-06-16T22:09:11.374Z,62.40
2018-06-16T22:11:40.598Z,62.50
2018-06-16T22:14:09.283Z,61.90
2018-06-16T22:16:38.392Z,63.00
2018-06-16T22:19:07.518Z,62.80
2018-06-16T22:21:37.222Z,63.90
2018-06-16T22:24:06.306Z,64.90
2018-06-16T22:26:35.072Z,63.60
2018-06-16T22:29:04.677Z,64.50
2018-06-16T22:31:33.770Z,63.40
2018-06-16T22:34:03.069Z,63.40
2018-06-16T22:36:31.991Z,62.40
2018-06-16T22:39:01.265Z,63.80
2018-06-16T22:41:31.003Z,62.70
2018-06-16T22:44:00.348Z,62.80
2018-06-16T22:46:29.770Z,63.70
2018-06-16T22:48:58.989Z,63.80
2018-06-16T22:51:27.990Z,64.10
2018-06-16T22:53:57.241Z,66.20
2018-06-16T22:56:27.028Z,64.50
2018-06-16T22:58:56.569Z,66.00
2018-06-16T23:01:25.450Z,65.30
2018-06-16T23:03:54.726Z,64.50
2018-06-16T23:06:24.458Z,66.00
2018-06-16T23:08:54.575Z,66.00
2018-06-16T23:11:23.794Z,66.90
2018-06-16T23:13:52.982Z,66.80
2018-06-16T23:16:22.592Z,66.90
2018-06-16T23:18:52.285Z,67.10
2018-06-16T23:21:21.326Z,66.90
2018-06-16T23:23:50.817Z,67.50
2018-06-16T23:26:19.820Z,68.30
2018-06-16T23:28:49.385Z,67.60
2018-06-16T23:31:18.590Z,66.60
2018-06-16T23:33:48.295Z,66.50
2018-06-16T23:36:18.256Z,67.80
2018-06-16T23:38:47.408Z,68.30
2018-06-16T23:41:16.515Z,69.10
2018-06-16T23:43:45.707Z,69.20
2018-06-16T23:46:14.721Z,68.70
2018-06-16T23:54:38.493Z,69.30
2018-06-16T23:57:06.935Z,69.40
2018-06-16T23:59:35.358Z,69.20
